createdAt,value
2022-12-18T00:00:06.469Z,99.90
2022-12-18T00:01:19.355Z,99.90
2022-12-18T00:02:23.203Z,99.90
2022-12-18T00:03:30.715Z,99.90
2022-12-18T00:04:38.577Z,99.90
2022-12-18T00:05:48.893Z,99.90
2022-12-18T00:06:53.056Z,99.90
2022-12-18T00:07:56.674Z,99.90
2022-12-18T00:09:01.399Z,99.90
2022-12-18T00:10:05.750Z,99.90
2022-12-18T00:11:12.200Z,99.90
2022-12-18T00:13:21.074Z,99.90
2022-12-18T00:14:24.440Z,99.90
2022-12-18T00:15:29.240Z,99.90
2022-12-18T00:16:34.207Z,99.90
2022-12-18T00:17:37.203Z,99.90
2022-12-18T00:18:41.947Z,99.90
2022-12-18T00:19:49.953Z,99.90
2022-12-18T00:20:53.782Z,99.90
2022-12-18T00:22:00.666Z,99.90
2022-12-18T00:23:04.101Z,99.90
2022-12-18T00:24:07.607Z,99.90
2022-12-18T00:25:11.338Z,99.90
2022-12-18T00:26:16.251Z,99.90
2022-12-18T00:27:21.069Z,99.90
2022-12-18T00:28:23.800Z,99.90
2022-12-18T00:29:29.281Z,99.90
2022-12-18T00:30:33.847Z,99.90
2022-12-18T00:31:39.288Z,99.90
2022-12-18T00:32:42.046Z,99.90
2022-12-18T00:33:46.671Z,99.90
2022-12-18T00:34:49.643Z,99.90
2022-12-18T00:36:03.221Z,99.90
2022-12-18T00:37:06.257Z,99.90
2022-12-18T00:38:09.700Z,99.90
2022-12-18T00:39:13.271Z,99.90
2022-12-18T00:40:16.963Z,99.90
2022-12-18T00:41:35.242Z,99.90
2022-12-18T00:42:57.379Z,99.90
2022-12-18T00:44:00.010Z,99.90
2022-12-18T00:45:12.665Z,99.90
2022-12-18T00:46:20.151Z,99.90
2022-12-18T00:47:29.514Z,99.90
2022-12-18T00:48:32.202Z,99.90
2022-12-18T00:49:35.991Z,99.90
2022-12-18T00:50:38.554Z,99.90
2022-12-18T00:51:42.498Z,99.90
2022-12-18T00:52:45.639Z,99.90
2022-12-18T00:53:53.446Z,99.90
2022-12-18T00:55:05.971Z,99.90
2022-12-18T00:56:08.921Z,99.90
2022-12-18T00:57:14.507Z,99.90
2022-12-18T00:58:18.796Z,99.90
2022-12-18T00:59:22.695Z,99.90
2022-12-18T01:00:27.831Z,99.90
2022-12-18T01:01:30.439Z,99.90
2022-12-18T01:02:34.164Z,99.90
2022-12-18T01:03:37.096Z,99.90
2022-12-18T01:04:41.470Z,99.90
2022-12-18T01:05:44.121Z,99.90
2022-12-18T01:06:48.792Z,99.90
2022-12-18T01:07:51.462Z,99.90
2022-12-18T01:08:56.369Z,99.90
2022-12-18T01:10:08.456Z,99.90
2022-12-18T01:11:14.744Z,99.90
2022-12-18T01:12:17.443Z,99.90
2022-12-18T01:13:22.602Z,99.90
2022-12-18T01:14:26.835Z,99.90
2022-12-18T01:15:30.328Z,99.90
2022-12-18T01:16:33.492Z,99.90
2022-12-18T01:17:37.538Z,99.90
2022-12-18T01:18:40.776Z,99.90
2022-12-18T01:19:44.653Z,99.90
2022-12-18T01:20:47.008Z,99.90
2022-12-18T01:21:50.541Z,99.90
2022-12-18T01:22:53.467Z,99.90
2022-12-18T01:23:58.836Z,99.90
2022-12-18T01:25:01.637Z,99.90
2022-12-18T01:26:10.122Z,99.90
2022-12-18T01:27:16.925Z,99.90
2022-12-18T01:28:26.093Z,99.90
2022-12-18T01:29:28.562Z,99.90
2022-12-18T01:30:32.521Z,99.90
2022-12-18T01:31:35.676Z,99.90
2022-12-18T01:32:42.808Z,99.90
2022-12-18T01:33:45.956Z,99.90
2022-12-18T01:34:49.487Z,99.90
2022-12-18T01:35:52.135Z,99.90
2022-12-18T01:36:55.560Z,99.90
2022-12-18T01:37:58.499Z,99.90
2022-12-18T01:39:03.705Z,99.90
2022-12-18T01:40:08.140Z,99.90
2022-12-18T01:41:12.273Z,99.90
2022-12-18T01:42:16.299Z,99.90
2022-12-18T01:43:21.228Z,99.90
2022-12-18T01:45:04.943Z,99.90
2022-12-18T01:46:07.599Z,99.90
2022-12-18T01:47:15.006Z,99.90
2022-12-18T01:48:17.648Z,99.90
2022-12-18T01:49:21.179Z,99.90
2022-12-18T01:50:32.174Z,99.90
2022-12-18T01:51:35.725Z,99.90
2022-12-18T01:52:41.229Z,99.90
2022-12-18T01:53:48.337Z,99.90
2022-12-18T01:54:53.317Z,99.90
2022-12-18T01:56:00.434Z,99.90
2022-12-18T01:57:03.395Z,99.90
2022-12-18T01:58:07.429Z,99.90
2022-12-18T01:59:14.389Z,99.90
2022-12-18T02:00:21.140Z,99.90
2022-12-18T02:01:25.611Z,99.90
2022-12-18T02:02:36.715Z,99.90
2022-12-18T07:07:58.877Z,99.90
2022-12-18T11:39:42.808Z,98.50
2022-12-18T11:40:52.125Z,98.70
2022-12-18T11:42:13.746Z,98.00
2022-12-18T11:43:24.050Z,98.10
2022-12-18T11:46:50.607Z,98.20
2022-12-18T12:19:32.086Z,95.90
2022-12-18T12:20:48.971Z,96.30
2022-12-18T12:22:02.586Z,96.30
2022-12-18T12:23:17.470Z,96.40
2022-12-18T12:24:40.781Z,96.10
2022-12-18T12:25:52.239Z,96.00
2022-12-18T12:27:09.936Z,96.40
2022-12-18T12:28:32.948Z,96.60
2022-12-18T12:29:52.257Z,96.40
2022-12-18T12:31:08.800Z,96.90
2022-12-18T12:32:28.031Z,97.30
2022-12-18T12:33:44.887Z,97.50
2022-12-18T12:35:09.652Z,97.00
2022-12-18T12:36:28.820Z,97.40
2022-12-18T12:37:46.598Z,97.10
2022-12-18T12:38:58.190Z,97.20
2022-12-18T12:40:15.248Z,97.10
2022-12-18T12:42:03.769Z,97.10
2022-12-18T12:43:24.458Z,97.00
2022-12-18T12:44:33.519Z,97.30
2022-12-18T12:45:44.538Z,97.60
2022-12-18T12:46:54.730Z,97.40
2022-12-18T12:48:07.019Z,97.10
2022-12-18T12:49:17.779Z,97.30
2022-12-18T12:50:24.040Z,97.60
2022-12-18T12:51:29.884Z,97.70
2022-12-18T12:52:39.740Z,97.30
2022-12-18T12:53:44.381Z,97.30
2022-12-18T12:54:50.776Z,97.40
2022-12-18T12:55:55.843Z,97.40
2022-12-18T12:57:10.509Z,98.40
2022-12-18T12:58:23.637Z,97.60
2022-12-18T12:59:39.760Z,97.50
2022-12-18T13:00:53.337Z,97.30
2022-12-18T13:02:08.104Z,97.80
2022-12-18T13:03:20.255Z,97.80
2022-12-18T13:04:34.876Z,97.50
2022-12-18T13:05:52.263Z,97.70
2022-12-18T13:07:03.679Z,97.50
2022-12-18T13:08:09.024Z,98.30
2022-12-18T13:09:13.815Z,98.30
2022-12-18T13:10:32.336Z,98.30
2022-12-18T13:12:00.412Z,97.80
2022-12-18T13:13:12.842Z,98.60
2022-12-18T13:14:25.343Z,98.20
2022-12-18T13:15:41.066Z,97.70
2022-12-18T13:16:43.736Z,98.10
2022-12-18T13:17:48.620Z,98.60
2022-12-18T13:18:53.587Z,98.20
2022-12-18T13:20:12.516Z,98.10
2022-12-18T13:21:32.246Z,98.00
2022-12-18T13:22:39.201Z,98.10
2022-12-18T13:23:43.937Z,98.30
2022-12-18T13:24:47.018Z,98.20
2022-12-18T13:25:52.723Z,98.40
2022-12-18T13:26:56.825Z,98.40
2022-12-18T13:28:09.592Z,98.70
2022-12-18T13:29:13.322Z,98.40
2022-12-18T13:30:48.084Z,99.90
2022-12-18T13:32:22.040Z,99.60
2022-12-18T13:35:40.447Z,99.10
2022-12-18T13:36:44.090Z,98.40
2022-12-18T13:37:58.697Z,98.70
2022-12-18T13:39:32.669Z,98.70
2022-12-18T13:40:57.471Z,98.50
2022-12-18T13:42:57.341Z,98.60
2022-12-18T13:44:15.023Z,98.40
2022-12-18T13:45:44.976Z,98.30
2022-12-18T13:46:54.375Z,99.00
2022-12-18T13:49:07.960Z,98.50
2022-12-18T13:50:21.107Z,98.70
2022-12-18T13:51:31.358Z,98.90
2022-12-18T13:52:40.435Z,99.00
2022-12-18T13:53:50.481Z,98.90
2022-12-18T13:56:07.270Z,99.00
2022-12-18T13:57:35.034Z,99.10
2022-12-18T13:58:39.032Z,99.10
2022-12-18T13:59:42.830Z,99.00
2022-12-18T14:00:45.996Z,99.10
2022-12-18T14:01:56.120Z,99.20
2022-12-18T14:03:01.737Z,99.30
2022-12-18T14:04:19.836Z,99.60
2022-12-18T14:05:25.111Z,99.30
2022-12-18T14:06:28.544Z,99.30
2022-12-18T14:07:43.748Z,99.30
2022-12-18T14:08:52.344Z,99.30
2022-12-18T14:10:18.674Z,99.90
2022-12-18T14:11:27.019Z,99.10
2022-12-18T14:12:51.944Z,99.70
2022-12-18T14:14:00.545Z,99.70
2022-12-18T14:15:04.478Z,99.90
2022-12-18T14:16:17.951Z,99.70
2022-12-18T14:17:21.583Z,99.90
2022-12-18T14:18:31.439Z,99.70
2022-12-18T14:19:38.038Z,99.90
2022-12-18T14:20:50.642Z,99.90
2022-12-18T14:21:56.249Z,99.90
2022-12-18T14:24:17.880Z,99.90
2022-12-18T14:25:26.521Z,99.90
2022-12-18T14:26:31.795Z,99.90
2022-12-18T14:27:43.762Z,99.90
2022-12-18T14:28:46.423Z,99.70
2022-12-18T14:30:56.707Z,99.90
2022-12-18T14:32:24.092Z,99.90
2022-12-18T14:33:29.865Z,99.90
2022-12-18T14:34:32.515Z,99.90
2022-12-18T14:38:22.362Z,99.30
2022-12-18T14:43:48.697Z,99.50
2022-12-18T14:45:13.067Z,99.50
2022-12-18T14:49:46.554Z,99.50
2022-12-18T14:51:01.246Z,99.30
2022-12-18T14:54:28.390Z,99.10
2022-12-18T14:55:31.325Z,99.40
2022-12-18T14:56:38.097Z,99.40
2022-12-18T14:57:45.724Z,99.00
2022-12-18T14:58:52.965Z,99.70
2022-12-18T15:00:08.001Z,99.70
2022-12-18T15:01:24.044Z,99.70
2022-12-18T15:02:31.404Z,99.90
2022-12-18T15:04:43.165Z,99.90
2022-12-18T15:05:50.246Z,99.70
2022-12-18T15:07:11.506Z,99.90
2022-12-18T15:08:31.137Z,99.90
2022-12-18T15:09:36.577Z,99.90
2022-12-18T15:10:50.643Z,99.90
2022-12-18T15:11:59.663Z,99.90
2022-12-18T15:13:19.191Z,99.90
2022-12-18T15:14:43.547Z,99.90
2022-12-18T15:15:49.337Z,99.90
2022-12-18T15:16:55.949Z,99.90
2022-12-18T15:18:06.280Z,99.90
2022-12-18T15:19:10.738Z,99.40
2022-12-18T15:20:19.461Z,99.90
2022-12-18T15:21:24.680Z,99.50
2022-12-18T15:40:20.593Z,98.90
2022-12-18T15:47:14.062Z,99.40
2022-12-18T15:52:44.672Z,98.50
2022-12-18T15:56:36.074Z,99.20
2022-12-18T16:04:14.146Z,98.20
2022-12-18T16:05:18.926Z,99.90
2022-12-18T16:06:22.945Z,99.90
2022-12-18T16:08:32.577Z,99.90
2022-12-18T16:09:36.910Z,99.90
2022-12-18T16:11:47.317Z,99.90
2022-12-18T16:13:54.034Z,99.90
2022-12-18T16:14:58.570Z,99.90
2022-12-18T16:17:11.961Z,98.30
2022-12-18T16:19:20.705Z,97.00
2022-12-18T16:20:29.631Z,97.10
2022-12-18T16:21:34.221Z,97.00
2022-12-18T16:22:38.407Z,96.90
2022-12-18T16:23:41.692Z,97.10
2022-12-18T16:24:47.736Z,97.00
2022-12-18T16:25:53.572Z,99.60
2022-12-18T16:27:00.462Z,99.90
2022-12-18T16:28:04.941Z,99.90
2022-12-18T16:29:08.143Z,99.90
2022-12-18T16:30:16.252Z,99.90
2022-12-18T16:31:20.273Z,98.30
2022-12-18T16:32:24.607Z,99.30
2022-12-18T16:33:29.716Z,99.50
2022-12-18T16:34:36.253Z,98.70
2022-12-18T16:35:42.506Z,96.90
2022-12-18T16:36:46.482Z,97.60
2022-12-18T16:37:50.674Z,98.50
2022-12-18T16:38:54.101Z,99.00
2022-12-18T16:39:59.400Z,97.90
2022-12-18T16:41:17.061Z,99.80
2022-12-18T16:42:24.099Z,97.90
2022-12-18T16:43:26.864Z,97.20
2022-12-18T16:44:30.677Z,96.80
2022-12-18T16:45:34.543Z,97.50
2022-12-18T16:46:38.180Z,96.80
2022-12-18T16:47:47.068Z,98.20
2022-12-18T16:48:50.007Z,98.70
2022-12-18T16:49:57.909Z,98.60
2022-12-18T16:51:08.570Z,99.90
2022-12-18T16:52:12.241Z,99.90
2022-12-18T16:53:15.899Z,99.20
2022-12-18T16:54:19.691Z,98.90
2022-12-18T16:55:25.020Z,99.70
2022-12-18T16:56:27.964Z,99.40
2022-12-18T16:57:32.286Z,97.80
2022-12-18T16:58:40.308Z,96.90
2022-12-18T16:59:46.570Z,96.90
2022-12-18T17:00:49.995Z,97.20
2022-12-18T17:01:53.926Z,97.40
2022-12-18T17:02:57.598Z,97.10
2022-12-18T17:04:04.891Z,98.40
2022-12-18T17:05:09.591Z,97.50
2022-12-18T17:06:14.961Z,97.50
2022-12-18T17:07:18.733Z,97.90
2022-12-18T17:08:21.690Z,97.20
2022-12-18T17:09:26.617Z,97.50
2022-12-18T17:10:38.780Z,97.80
2022-12-18T17:11:44.298Z,98.50
2022-12-18T17:12:48.195Z,97.80
2022-12-18T17:13:53.481Z,97.50
2022-12-18T17:14:57.138Z,98.40
2022-12-18T17:16:04.478Z,97.90
2022-12-18T17:17:20.879Z,98.50
2022-12-18T17:18:27.125Z,98.30
2022-12-18T17:19:32.221Z,97.00
2022-12-18T17:20:36.177Z,96.70
2022-12-18T17:21:40.623Z,96.70
2022-12-18T17:22:48.640Z,96.60
2022-12-18T17:23:55.281Z,97.20
2022-12-18T17:25:00.459Z,97.40
2022-12-18T17:26:07.665Z,97.60
2022-12-18T17:27:11.425Z,97.70
2022-12-18T17:28:14.394Z,97.80
2022-12-18T17:29:20.081Z,98.00
2022-12-18T17:30:25.070Z,98.00
2022-12-18T17:31:30.196Z,98.50
2022-12-18T17:32:34.657Z,98.40
2022-12-18T17:33:38.746Z,98.60
2022-12-18T17:34:44.912Z,98.70
2022-12-18T17:35:52.349Z,98.80
2022-12-18T17:36:56.447Z,99.30
2022-12-18T17:37:59.006Z,99.30
2022-12-18T17:39:05.857Z,99.40
2022-12-18T17:40:10.309Z,99.40
2022-12-18T17:41:16.041Z,99.80
2022-12-18T17:42:24.890Z,99.80
2022-12-18T17:43:28.494Z,99.90
2022-12-18T17:44:38.031Z,99.90
2022-12-18T17:45:41.765Z,99.90
2022-12-18T17:46:47.619Z,99.90
2022-12-18T17:47:56.758Z,99.90
2022-12-18T17:49:05.450Z,99.90
2022-12-18T17:50:14.748Z,99.90
2022-12-18T17:51:18.499Z,99.90
2022-12-18T17:52:22.809Z,99.90
2022-12-18T17:53:25.984Z,99.90
2022-12-18T17:54:29.994Z,99.90
2022-12-18T17:55:34.598Z,99.90
2022-12-18T17:56:41.309Z,99.90
2022-12-18T17:57:43.931Z,99.90
2022-12-18T17:58:50.407Z,99.90
2022-12-18T17:59:54.868Z,99.90
2022-12-18T18:00:58.660Z,99.90
2022-12-18T18:02:02.781Z,99.90
2022-12-18T18:03:07.176Z,99.90
2022-12-18T18:04:11.908Z,99.90
2022-12-18T18:05:14.767Z,99.90
2022-12-18T18:06:22.334Z,99.90
2022-12-18T18:07:26.137Z,99.90
2022-12-18T18:08:29.985Z,99.90
2022-12-18T18:09:34.098Z,99.90
2022-12-18T18:10:42.691Z,99.90
2022-12-18T18:12:05.881Z,99.90
2022-12-18T18:13:42.049Z,99.90
2022-12-18T18:14:50.006Z,99.90
2022-12-18T18:15:59.020Z,99.90
2022-12-18T18:17:04.196Z,99.90
2022-12-18T18:18:12.029Z,99.90
2022-12-18T18:19:20.874Z,99.90
2022-12-18T18:20:24.021Z,99.90
2022-12-18T18:21:28.144Z,99.90
2022-12-18T18:22:32.817Z,99.90
2022-12-18T18:23:36.130Z,99.90
2022-12-18T18:24:41.157Z,99.90
2022-12-18T18:25:44.092Z,99.90
2022-12-18T18:26:49.286Z,99.90
2022-12-18T18:27:53.629Z,99.90
2022-12-18T18:28:59.172Z,99.90
2022-12-18T18:30:03.817Z,99.90
2022-12-18T18:31:07.762Z,99.90
2022-12-18T18:32:11.860Z,99.90
2022-12-18T18:33:15.726Z,99.90
2022-12-18T18:34:23.761Z,99.90
2022-12-18T18:35:52.968Z,99.90
2022-12-18T18:36:50.600Z,99.90
2022-12-18T18:37:53.520Z,99.90
2022-12-18T18:38:59.937Z,99.90
2022-12-18T18:40:03.344Z,99.90
2022-12-18T18:41:07.724Z,99.90
2022-12-18T18:42:12.702Z,99.90
2022-12-18T18:43:15.722Z,99.90
2022-12-18T18:44:24.423Z,99.90
2022-12-18T18:45:30.297Z,99.90
2022-12-18T18:46:33.530Z,99.90
2022-12-18T18:47:39.474Z,99.90
2022-12-18T18:48:42.421Z,99.90
2022-12-18T18:49:47.667Z,99.90
2022-12-18T18:50:57.171Z,99.90
2022-12-18T18:52:03.355Z,99.90
2022-12-18T18:53:05.959Z,99.90
2022-12-18T18:54:10.798Z,99.90
2022-12-18T18:55:18.570Z,99.90
2022-12-18T18:57:55.944Z,99.90
2022-12-18T18:59:00.637Z,99.90
2022-12-18T19:00:04.244Z,99.90
2022-12-18T19:01:09.017Z,99.90
2022-12-18T19:02:14.144Z,99.90
2022-12-18T19:03:21.232Z,99.90
2022-12-18T19:04:25.878Z,99.90
2022-12-18T19:05:29.436Z,99.90
2022-12-18T19:06:35.364Z,99.90
2022-12-18T19:07:40.042Z,99.90
2022-12-18T19:08:44.383Z,99.90
2022-12-18T19:09:52.089Z,99.90
2022-12-18T19:10:59.004Z,99.90
2022-12-18T19:12:21.174Z,99.90
2022-12-18T19:13:28.392Z,99.90
2022-12-18T19:14:32.027Z,99.90
2022-12-18T19:15:36.114Z,99.90
2022-12-18T19:16:42.104Z,99.90
2022-12-18T19:17:47.490Z,99.90
2022-12-18T19:18:51.877Z,99.90
2022-12-18T19:19:54.558Z,99.90
2022-12-18T19:21:01.316Z,99.90
2022-12-18T19:22:04.148Z,99.90
2022-12-18T19:23:15.651Z,99.90
2022-12-18T19:24:22.336Z,99.90
2022-12-18T19:25:37.575Z,99.90
2022-12-18T19:26:44.808Z,99.90
2022-12-18T19:27:48.051Z,99.90
2022-12-18T19:28:55.711Z,99.90
2022-12-18T19:30:02.066Z,99.90
2022-12-18T19:31:09.346Z,99.90
2022-12-18T19:32:12.172Z,99.90
2022-12-18T19:33:44.917Z,99.90
2022-12-18T19:34:42.861Z,99.90
2022-12-18T19:35:58.783Z,99.90
2022-12-18T19:37:02.801Z,99.90
2022-12-18T19:38:05.640Z,99.90
2022-12-18T19:39:13.418Z,99.90
2022-12-18T19:40:16.962Z,99.90
2022-12-18T19:41:22.903Z,99.90
2022-12-18T19:42:34.853Z,99.90
2022-12-18T19:43:40.229Z,99.90
2022-12-18T19:44:48.039Z,99.90
2022-12-18T19:45:56.950Z,99.90
2022-12-18T19:47:00.704Z,99.90
2022-12-18T19:48:04.526Z,99.90
2022-12-18T19:49:08.261Z,99.90
2022-12-18T19:50:13.939Z,99.90
2022-12-18T19:51:20.428Z,99.90
2022-12-18T19:52:24.466Z,99.90
2022-12-18T19:53:31.287Z,99.90
2022-12-18T19:54:44.024Z,99.90
2022-12-18T19:55:47.108Z,99.90
2022-12-18T19:56:53.567Z,99.90
2022-12-18T19:57:59.628Z,99.90
2022-12-18T19:59:05.219Z,99.90
2022-12-18T20:00:18.530Z,99.90
2022-12-18T20:01:24.179Z,99.90
2022-12-18T20:02:29.331Z,99.90
2022-12-18T20:03:36.144Z,99.90
2022-12-18T20:04:41.304Z,99.90
2022-12-18T20:05:44.681Z,99.90
2022-12-18T20:06:51.649Z,99.90
2022-12-18T20:07:54.651Z,99.90
2022-12-18T20:09:01.371Z,99.90
2022-12-18T20:10:09.051Z,99.90
2022-12-18T20:11:13.235Z,99.90
2022-12-18T20:12:17.247Z,99.90
2022-12-18T20:13:19.967Z,99.90
2022-12-18T20:14:24.413Z,99.90
2022-12-18T20:15:30.598Z,99.90
2022-12-18T20:16:35.322Z,99.90
2022-12-18T20:17:40.418Z,99.90
2022-12-18T20:18:43.921Z,99.90
2022-12-18T20:19:47.987Z,99.90
2022-12-18T20:20:51.062Z,99.90
2022-12-18T20:21:56.182Z,99.90
2022-12-18T20:22:58.991Z,99.90
2022-12-18T20:24:03.561Z,99.90
2022-12-18T20:25:08.592Z,99.90
2022-12-18T20:26:13.228Z,99.90
2022-12-18T20:27:19.492Z,99.90
2022-12-18T20:28:25.207Z,99.90
2022-12-18T20:29:28.327Z,99.90
2022-12-18T20:30:33.833Z,99.90
2022-12-18T20:31:38.970Z,99.90
2022-12-18T20:32:42.863Z,99.90
2022-12-18T20:33:48.398Z,99.90
2022-12-18T20:34:53.032Z,99.90
2022-12-18T20:36:04.031Z,99.90
2022-12-18T20:37:09.099Z,99.90
2022-12-18T20:38:13.655Z,99.90
2022-12-18T20:39:18.412Z,99.90
2022-12-18T20:40:22.261Z,99.90
2022-12-18T20:41:26.359Z,99.90
2022-12-18T20:42:34.269Z,99.90
2022-12-18T20:43:38.717Z,99.90
2022-12-18T20:44:42.945Z,99.90
2022-12-18T20:45:47.550Z,99.90
2022-12-18T20:46:52.690Z,99.90
2022-12-18T20:48:06.554Z,99.90
2022-12-18T20:49:11.624Z,99.90
2022-12-18T20:50:15.984Z,99.90
2022-12-18T20:51:21.297Z,99.90
2022-12-18T20:52:25.666Z,99.90
2022-12-18T20:53:29.816Z,99.90
2022-12-18T20:54:33.721Z,99.90
2022-12-18T20:55:41.267Z,99.90
2022-12-18T20:56:45.632Z,99.90
2022-12-18T20:57:49.809Z,99.90
2022-12-18T20:58:55.079Z,99.90
2022-12-18T20:59:59.783Z,99.90
2022-12-18T21:01:14.758Z,99.90
2022-12-18T21:02:22.655Z,99.90
2022-12-18T21:03:26.049Z,99.90
2022-12-18T21:04:30.247Z,99.90
2022-12-18T21:05:34.922Z,99.90
2022-12-18T21:06:42.848Z,99.90
2022-12-18T21:07:48.467Z,99.90
2022-12-18T21:08:51.817Z,99.90
2022-12-18T21:09:56.854Z,99.90
2022-12-18T21:11:35.931Z,99.90
2022-12-18T21:12:49.729Z,99.90
2022-12-18T21:14:02.239Z,99.90
2022-12-18T21:15:09.715Z,99.90
2022-12-18T21:16:14.025Z,99.90
2022-12-18T21:17:17.817Z,99.90
2022-12-18T21:18:20.362Z,99.90
2022-12-18T21:19:27.509Z,99.90
2022-12-18T21:20:31.437Z,99.90
2022-12-18T21:21:38.577Z,99.90
2022-12-18T21:22:46.036Z,99.90
2022-12-18T21:23:49.054Z,99.90
2022-12-18T21:24:57.053Z,99.90
2022-12-18T21:26:16.479Z,99.90
2022-12-18T21:27:20.850Z,99.90
2022-12-18T21:28:26.782Z,99.90
2022-12-18T21:29:30.870Z,99.90
2022-12-18T21:30:35.461Z,99.90
2022-12-18T21:31:40.758Z,99.90
2022-12-18T21:32:49.631Z,99.90
2022-12-18T21:33:55.858Z,99.90
2022-12-18T21:35:07.123Z,99.90
2022-12-18T21:36:14.939Z,99.90
2022-12-18T21:37:23.792Z,99.90
2022-12-18T21:38:29.014Z,99.90
2022-12-18T21:39:33.107Z,99.90
2022-12-18T21:40:37.187Z,99.90
2022-12-18T21:41:58.528Z,99.90
2022-12-18T21:43:20.114Z,99.90
2022-12-18T21:44:24.218Z,99.90
2022-12-18T21:45:28.184Z,99.90
2022-12-18T21:46:37.344Z,99.90
2022-12-18T21:47:42.448Z,99.90
2022-12-18T21:48:45.378Z,99.90
2022-12-18T21:49:58.400Z,99.90
2022-12-18T21:51:01.960Z,99.90
2022-12-18T21:52:06.937Z,99.90
2022-12-18T21:53:11.241Z,99.90
2022-12-18T21:54:13.622Z,99.90
2022-12-18T21:55:17.260Z,99.90
2022-12-18T21:56:20.291Z,99.90
2022-12-18T21:57:24.495Z,99.90
2022-12-18T21:58:27.601Z,99.90
2022-12-18T21:59:35.800Z,99.90
2022-12-18T22:00:48.365Z,99.90
2022-12-18T22:01:59.224Z,99.90
2022-12-18T22:03:18.602Z,99.90
2022-12-18T22:04:24.796Z,99.90
2022-12-18T22:05:28.281Z,99.90
2022-12-18T22:06:33.106Z,99.90
2022-12-18T22:07:36.967Z,99.90
2022-12-18T22:08:43.429Z,99.90
2022-12-18T22:09:49.113Z,99.90
2022-12-18T22:10:52.199Z,99.90
2022-12-18T22:11:56.232Z,99.90
2022-12-18T22:13:00.125Z,99.90
2022-12-18T22:14:04.951Z,99.90
2022-12-18T22:15:09.410Z,99.90
2022-12-18T22:16:14.170Z,99.90
2022-12-18T22:17:16.829Z,99.90
2022-12-18T22:18:22.923Z,99.90
2022-12-18T22:19:26.309Z,99.90
2022-12-18T22:20:31.323Z,99.90
2022-12-18T22:21:37.924Z,99.90
2022-12-18T22:22:41.456Z,99.90
2022-12-18T22:23:48.385Z,99.90
2022-12-18T22:24:56.386Z,99.90
2022-12-18T22:25:59.575Z,99.90
2022-12-18T22:27:03.272Z,99.90
2022-12-18T22:28:24.982Z,99.90
2022-12-18T22:29:46.283Z,99.90
2022-12-18T22:30:55.143Z,99.90
2022-12-18T22:32:03.415Z,99.90
2022-12-18T22:33:07.414Z,99.90
2022-12-18T22:34:12.465Z,99.90
2022-12-18T22:35:16.334Z,99.90
2022-12-18T22:36:18.917Z,99.90
2022-12-18T22:37:24.889Z,99.90
2022-12-18T22:38:27.546Z,99.90
2022-12-18T22:39:32.447Z,99.90
2022-12-18T22:40:35.359Z,99.90
2022-12-18T22:41:39.822Z,99.90
2022-12-18T22:42:43.372Z,99.90
2022-12-18T22:43:45.985Z,99.90
2022-12-18T22:44:49.520Z,99.90
2022-12-18T22:45:55.824Z,99.90
2022-12-18T22:47:05.607Z,99.90
2022-12-18T22:48:15.234Z,99.90
2022-12-18T22:49:22.511Z,99.90
2022-12-18T22:50:26.213Z,99.90
2022-12-18T22:51:28.734Z,99.90
2022-12-18T22:52:32.466Z,99.90
2022-12-18T22:53:35.330Z,99.90
2022-12-18T22:54:39.644Z,99.90
2022-12-18T22:55:42.018Z,99.90
2022-12-18T22:56:46.336Z,99.90
2022-12-18T22:57:58.913Z,99.90
2022-12-18T22:59:01.687Z,99.90
2022-12-18T23:00:06.919Z,99.90
2022-12-18T23:01:20.246Z,99.90
2022-12-18T23:02:24.247Z,99.90
2022-12-18T23:03:26.704Z,99.90
2022-12-18T23:04:36.647Z,99.90
2022-12-18T23:05:43.600Z,99.90
2022-12-18T23:06:47.716Z,99.90
2022-12-18T23:07:50.106Z,99.90
2022-12-18T23:08:56.258Z,99.90
2022-12-18T23:09:58.938Z,99.90
2022-12-18T23:11:05.165Z,99.90
2022-12-18T23:12:08.550Z,99.90
2022-12-18T23:13:11.994Z,99.90
2022-12-18T23:14:14.587Z,99.90
2022-12-18T23:15:28.342Z,99.90
2022-12-18T23:16:31.227Z,99.90
2022-12-18T23:17:34.638Z,99.90
2022-12-18T23:18:38.143Z,99.90
2022-12-18T23:19:48.798Z,99.90
2022-12-18T23:20:56.851Z,99.90
2022-12-18T23:22:03.509Z,99.90
2022-12-18T23:23:08.798Z,99.90
2022-12-18T23:24:12.538Z,99.90
2022-12-18T23:25:15.146Z,99.90
2022-12-18T23:26:21.749Z,99.90
2022-12-18T23:27:24.296Z,99.90
2022-12-18T23:28:32.863Z,99.90
2022-12-18T23:29:37.113Z,99.90
2022-12-18T23:30:39.728Z,99.90
2022-12-18T23:31:43.303Z,99.90
2022-12-18T23:32:45.801Z,99.90
2022-12-18T23:33:50.182Z,99.90
2022-12-18T23:34:54.254Z,99.90
2022-12-18T23:36:00.245Z,99.90
2022-12-18T23:37:03.842Z,99.90
2022-12-18T23:38:07.579Z,99.90
2022-12-18T23:39:12.716Z,99.90
2022-12-18T23:40:30.979Z,99.90
2022-12-18T23:41:35.631Z,99.90
2022-12-18T23:42:38.465Z,99.90
2022-12-18T23:43:43.074Z,99.90
2022-12-18T23:44:47.038Z,99.90
2022-12-18T23:45:55.505Z,99.90
2022-12-18T23:46:59.699Z,99.90
2022-12-18T23:48:02.533Z,99.90
2022-12-18T23:49:07.353Z,99.90
2022-12-18T23:50:11.310Z,99.90
2022-12-18T23:51:21.102Z,99.90
2022-12-18T23:52:23.681Z,99.90
2022-12-18T23:53:32.022Z,99.90
2022-12-18T23:54:34.557Z,99.90
2022-12-18T23:55:42.122Z,99.90
2022-12-18T23:56:44.557Z,99.90
2022-12-18T23:57:52.253Z,99.90
2022-12-18T23:59:01.873Z,99.90
